メインページ
METAR-TAF:

METAR-TAF

空港 :

チューレ空軍基地

トゥーレ, グリーンランド

緯度: 76-32N, 経度: 068-42W, 海抜: 77m

現時点の気象観測

当レポートは41分前の08:56(UTC)に作成
無風
気温 -1°C
湿度 74%
気圧 998 hPa
視程10km以上
高度800ftの千切れ雲あり

METAR: BGTL 200856Z 00000KT 9999 BKN008 M01/M05 A2948 RMK SLPNO WND DATA ESTMD ALSTG/SLP ESTMD

時間: 06:37 (09:37 UTC)

予報

当レポートは37分前の09:00(UTC)に作成
予報は20日の 09時(UTC)から 21日の 15時(UTC)まで有効
変向風 6kt
視程10km以上
高度800ftの千切れ雲あり
高度15000ftの曇り
20日の 12時(UTC)から 20日の 13時(UTC)まで徐々に
変向風 6kt
視程10km以上
高度1000ftの雲はほとんどない
高度15000ftの千切れ雲あり
20日の 21時(UTC)から 20日の 22時(UTC)まで徐々に
北西の風 6kt
視程: 8000m
高度1500ftの曇り
小雪
21日の 02時(UTC)から 21日の 03時(UTC)まで徐々に
の風 3kt
視程10km以上
高度1500ftの雲は散在している
高度13000ftの千切れ雲あり
21日の 09時(UTC)から 21日の 10時(UTC)まで徐々に
東/北東の風 4kt
視程10km以上
高度800ftの千切れ雲あり
高度12000ftの千切れ雲あり

TAF: BGTL 200900Z 2009/2115 VRB06KT 9999 BKN008 OVC150 QNH2947INS BECMG 2012/2013 VRB06KT 9999 FEW010 BKN150 QNH2953INS BECMG 2021/2022 32006KT 8000 -SN OVC015 620153 QNH2960INS BECMG 2102/2103 08003KT 9999 NSW SCT015 BKN130 QNH2963INS BECMG 2109/2110 06004KT 9999 BKN008 BKN120 QNH2972INS TXM01/2018Z TNM07/2010Z

4,000以上の空港の気象観測と天気予報(METAR報とTAF報)

利用可能な観測所は地図上に黄色い丸と赤い丸で示す。

丸の上にカーソルを重ねると観測所名を参照できる。

次にクリックすると気象観測と天気予報を参照できる。

マップの切り替え:黒色「×」印の緑ボタンをクリックして拡大、「-」印の緑ボタンをクリックして縮小、緑色の三角印をクリックして隣りの地図に切り替え


METAR-TAF: